Time;durP1;ratioP1;P1;durP2;ratioP2;P2;SDS_P1;SDS_P2;PMS_P1;PMS_P2;Temp;Humidity;BMP_temperature;BMP_pressure;BME280_temperature;BME280_humidity;BME280_pressure;Samples;Min_cycle;Max_cycle;Signal;HPM_P1;HPM_P2
2024/01/21 00:03:37;;;;;;;11.90;8.48;;;;;;;;;;10092126;28;20083;-62
2024/01/21 00:08:35;;;;;;;15.88;12.25;;;;;;;;;;10092061;28;20097;-62
2024/01/21 00:13:33;;;;;;;14.20;9.75;;;;;;;;;;10093678;28;20093;-62
2024/01/21 00:18:33;;;;;;;14.95;10.63;;;;;;;;;;10086532;28;20517;-60
2024/01/21 00:23:31;;;;;;;14.25;9.90;;;;;;;;;;10086166;28;20079;-61
2024/01/21 00:28:29;;;;;;;37.47;22.63;;;;;;;;;;10093212;28;20528;-60
2024/01/21 00:33:28;;;;;;;14.10;10.35;;;;;;;;;;10103077;28;20093;-61
2024/01/21 00:38:27;;;;;;;10.43;8.15;;;;;;;;;;10092418;28;20066;-60
2024/01/21 00:43:26;;;;;;;11.35;8.65;;;;;;;;;;10092131;28;20077;-61
2024/01/21 00:48:24;;;;;;;10.52;8.27;;;;;;;;;;10091377;28;20074;-61
2024/01/21 00:53:22;;;;;;;11.02;9.10;;;;;;;;;;10090727;28;20094;-61
2024/01/21 00:58:22;;;;;;;9.70;8.07;;;;;;;;;;10094310;28;20071;-62
2024/01/21 01:03:25;;;;;;;12.03;9.27;;;;;;;;;;10093513;28;20073;-60
2024/01/21 01:08:23;;;;;;;10.48;9.38;;;;;;;;;;10090810;28;20333;-60
2024/01/21 01:13:23;;;;;;;11.45;9.05;;;;;;;;;;10097257;28;20125;-60
2024/01/21 01:18:21;;;;;;;10.82;9.73;;;;;;;;;;10100751;28;20086;-61
2024/01/21 01:23:19;;;;;;;16.23;11.82;;;;;;;;;;10098088;28;20477;-62
2024/01/21 01:28:18;;;;;;;10.18;9.18;;;;;;;;;;10099288;28;20081;-61
2024/01/21 01:33:17;;;;;;;10.27;9.18;;;;;;;;;;10093014;28;20306;-62
2024/01/21 01:38:16;;;;;;;10.27;9.13;;;;;;;;;;10098256;28;20066;-61
2024/01/21 01:43:14;;;;;;;17.17;11.88;;;;;;;;;;10097160;28;20078;-62
2024/01/21 01:48:12;;;;;;;10.82;9.73;;;;;;;;;;10094794;28;20086;-63
2024/01/21 01:53:12;;;;;;;13.95;10.52;;;;;;;;;;10093342;28;20067;-61
2024/01/21 01:58:12;;;;;;;13.75;11.13;;;;;;;;;;10094771;28;20480;-61
2024/01/21 02:03:10;;;;;;;14.38;10.73;;;;;;;;;;10097325;28;20086;-61
2024/01/21 02:08:09;;;;;;;18.25;11.25;;;;;;;;;;10097030;28;20527;-62
2024/01/21 02:13:08;;;;;;;14.82;10.43;;;;;;;;;;10095029;28;20066;-60
2024/01/21 02:18:06;;;;;;;26.65;13.65;;;;;;;;;;10096242;28;20086;-60
2024/01/21 02:23:10;;;;;;;25.02;11.80;;;;;;;;;;10110053;28;20078;-61
2024/01/21 02:28:08;;;;;;;24.13;18.27;;;;;;;;;;10095975;28;20493;-61
2024/01/21 02:33:07;;;;;;;16.90;15.07;;;;;;;;;;10095233;28;20101;-61
2024/01/21 02:38:06;;;;;;;13.57;11.23;;;;;;;;;;10093455;28;20477;-61
2024/01/21 02:43:07;;;;;;;12.02;10.18;;;;;;;;;;10094693;28;20652;-61
2024/01/21 02:48:06;;;;;;;16.08;14.43;;;;;;;;;;10091107;28;20066;-61
2024/01/21 02:53:04;;;;;;;14.13;12.68;;;;;;;;;;10096104;28;20074;-61
2024/01/21 02:58:04;;;;;;;17.65;11.38;;;;;;;;;;10095744;28;20492;-61
2024/01/21 03:03:02;;;;;;;15.25;10.70;;;;;;;;;;10097869;28;20604;-61
2024/01/21 03:08:01;;;;;;;16.20;8.68;;;;;;;;;;10095220;28;20085;-61
2024/01/21 03:13:00;;;;;;;11.73;9.38;;;;;;;;;;10094460;28;20070;-61
2024/01/21 03:18:00;;;;;;;10.02;8.30;;;;;;;;;;10093040;28;20090;-61
2024/01/21 03:22:58;;;;;;;10.85;8.13;;;;;;;;;;10094101;28;20152;-61
2024/01/21 03:27:56;;;;;;;11.20;9.95;;;;;;;;;;10092716;28;20082;-61
2024/01/21 03:32:55;;;;;;;31.08;17.13;;;;;;;;;;10094698;28;20478;-61
2024/01/21 03:37:54;;;;;;;11.40;8.93;;;;;;;;;;10093310;28;20074;-62
2024/01/21 03:42:53;;;;;;;16.27;8.25;;;;;;;;;;10093439;28;20078;-62
2024/01/21 03:47:51;;;;;;;9.77;8.32;;;;;;;;;;10087064;28;20075;-62
2024/01/21 03:52:49;;;;;;;7.57;6.78;;;;;;;;;;10092810;28;20097;-61
2024/01/21 03:57:49;;;;;;;9.20;8.15;;;;;;;;;;10088082;28;20071;-61
2024/01/21 04:02:47;;;;;;;13.52;9.00;;;;;;;;;;10088176;28;20085;-61
2024/01/21 04:07:45;;;;;;;15.43;11.57;;;;;;;;;;10092957;28;20062;-61
2024/01/21 04:12:44;;;;;;;12.00;9.18;;;;;;;;;;10092840;28;20083;-61
2024/01/21 04:17:43;;;;;;;13.00;10.30;;;;;;;;;;10092466;28;20163;-62
2024/01/21 04:22:42;;;;;;;11.40;9.80;;;;;;;;;;10092938;28;20466;-62
2024/01/21 04:27:40;;;;;;;9.10;7.88;;;;;;;;;;10094659;28;20063;-62
2024/01/21 04:32:38;;;;;;;15.75;12.38;;;;;;;;;;10093523;28;20096;-62
2024/01/21 04:37:38;;;;;;;10.05;9.02;;;;;;;;;;10093291;28;20102;-60
2024/01/21 04:42:36;;;;;;;28.02;18.58;;;;;;;;;;10093586;28;20494;-61
2024/01/21 04:47:34;;;;;;;10.77;8.52;;;;;;;;;;10096195;28;20082;-62
2024/01/21 04:52:33;;;;;;;15.50;12.02;;;;;;;;;;10098837;28;20451;-61
2024/01/21 04:57:32;;;;;;;14.60;11.68;;;;;;;;;;10101983;28;20079;-60
2024/01/21 05:02:31;;;;;;;17.98;13.48;;;;;;;;;;10101780;28;20078;-60
2024/01/21 05:07:29;;;;;;;9.63;8.63;;;;;;;;;;10098984;28;20077;-62
2024/01/21 05:12:27;;;;;;;8.82;7.68;;;;;;;;;;10096793;28;20070;-61
2024/01/21 05:17:27;;;;;;;104.07;52.75;;;;;;;;;;10100427;28;20506;-61
2024/01/21 05:22:25;;;;;;;13.57;11.60;;;;;;;;;;10100316;28;20189;-61
2024/01/21 05:27:23;;;;;;;10.45;8.80;;;;;;;;;;10099940;28;20081;-59
2024/01/21 05:32:22;;;;;;;10.07;9.07;;;;;;;;;;10099674;28;20075;-61
2024/01/21 05:37:22;;;;;;;12.15;9.40;;;;;;;;;;10100160;28;20067;-61
2024/01/21 05:42:20;;;;;;;12.07;9.77;;;;;;;;;;10097599;28;20070;-61
2024/01/21 05:47:18;;;;;;;13.65;9.55;;;;;;;;;;10097608;28;20077;-61
2024/01/21 05:52:16;;;;;;;37.40;22.25;;;;;;;;;;10097654;28;20078;-61
2024/01/21 05:57:16;;;;;;;12.20;10.00;;;;;;;;;;10096814;28;20096;-61
2024/01/21 06:02:14;;;;;;;11.52;9.60;;;;;;;;;;10098872;28;20074;-61
2024/01/21 06:07:13;;;;;;;10.45;9.35;;;;;;;;;;10096766;28;20516;-61
2024/01/21 06:12:11;;;;;;;15.07;12.05;;;;;;;;;;10097628;28;20075;-61
2024/01/21 06:17:11;;;;;;;21.23;12.55;;;;;;;;;;10097890;28;20086;-61
2024/01/21 06:22:09;;;;;;;17.80;12.63;;;;;;;;;;10097201;28;20081;-61
2024/01/21 06:27:07;;;;;;;57.65;36.30;;;;;;;;;;10097303;28;20077;-62
2024/01/21 06:32:06;;;;;;;33.05;21.05;;;;;;;;;;10093500;28;20074;-61
2024/01/21 06:37:05;;;;;;;17.42;13.23;;;;;;;;;;10091607;28;20085;-61
2024/01/21 06:42:04;;;;;;;20.02;14.45;;;;;;;;;;10096946;28;20078;-60
2024/01/21 06:47:02;;;;;;;13.02;10.32;;;;;;;;;;10094902;28;20066;-60
2024/01/21 06:52:00;;;;;;;11.82;9.57;;;;;;;;;;10097913;28;20075;-61
2024/01/21 06:57:00;;;;;;;15.07;12.32;;;;;;;;;;10096652;28;20078;-62
2024/01/21 07:01:58;;;;;;;17.38;13.05;;;;;;;;;;10095596;28;20085;-62
2024/01/21 07:06:56;;;;;;;20.42;15.13;;;;;;;;;;10094778;28;20081;-61
2024/01/21 07:11:55;;;;;;;18.13;12.98;;;;;;;;;;10093763;28;20082;-62
2024/01/21 07:16:54;;;;;;;17.67;13.80;;;;;;;;;;10091906;28;20098;-60
2024/01/21 07:21:53;;;;;;;13.32;10.75;;;;;;;;;;10095580;28;20078;-62
2024/01/21 07:26:51;;;;;;;12.25;10.57;;;;;;;;;;10095782;28;20495;-61
2024/01/21 07:31:50;;;;;;;16.45;13.85;;;;;;;;;;10089184;28;20081;-60
2024/01/21 07:36:49;;;;;;;21.23;16.70;;;;;;;;;;10088422;28;20082;-60
2024/01/21 07:41:48;;;;;;;17.50;13.40;;;;;;;;;;10089623;28;20073;-61
2024/01/21 07:46:46;;;;;;;53.28;32.33;;;;;;;;;;10095115;28;20500;-60
2024/01/21 07:51:46;;;;;;;13.20;11.85;;;;;;;;;;10089761;28;20077;-61
2024/01/21 07:56:46;;;;;;;18.17;16.25;;;;;;;;;;10092810;28;20813;-60
2024/01/21 08:01:44;;;;;;;26.58;20.50;;;;;;;;;;10090207;28;20074;-61
2024/01/21 08:06:42;;;;;;;16.30;12.90;;;;;;;;;;10090145;28;20081;-62
2024/01/21 08:11:41;;;;;;;15.50;12.13;;;;;;;;;;10092991;28;20081;-60
2024/01/21 08:16:40;;;;;;;14.35;11.75;;;;;;;;;;10094604;28;20087;-61
2024/01/21 08:21:39;;;;;;;16.83;14.43;;;;;;;;;;10092227;28;20075;-60
2024/01/21 08:26:37;;;;;;;32.15;21.25;;;;;;;;;;10094683;28;20082;-60
2024/01/21 08:31:41;;;;;;;12.57;11.32;;;;;;;;;;10093009;28;20082;-60
2024/01/21 08:36:41;;;;;;;17.57;14.70;;;;;;;;;;10089739;28;20082;-59
2024/01/21 08:41:39;;;;;;;16.73;13.98;;;;;;;;;;10091926;28;20085;-61
2024/01/21 08:46:37;;;;;;;21.58;17.33;;;;;;;;;;10092030;28;20071;-59
2024/01/21 08:51:35;;;;;;;25.60;20.25;;;;;;;;;;10092832;28;20082;-60
2024/01/21 08:56:35;;;;;;;18.83;15.65;;;;;;;;;;10092712;28;20081;-61
2024/01/21 09:01:33;;;;;;;20.90;16.15;;;;;;;;;;10091557;28;20072;-61
2024/01/21 09:06:32;;;;;;;19.98;15.50;;;;;;;;;;10094729;28;20078;-62
2024/01/21 09:11:31;;;;;;;18.08;15.23;;;;;;;;;;10093705;28;20508;-61
2024/01/21 09:16:31;;;;;;;15.13;13.00;;;;;;;;;;10093087;28;20086;-59
2024/01/21 09:21:31;;;;;;;11.05;8.93;;;;;;;;;;10090759;28;20085;-61
2024/01/21 09:26:31;;;;;;;25.17;22.58;;;;;;;;;;10090694;28;20063;-61
2024/01/21 09:31:30;;;;;;;17.17;13.80;;;;;;;;;;10089564;28;20067;-61
2024/01/21 09:36:29;;;;;;;16.25;14.32;;;;;;;;;;10098631;28;20213;-60
2024/01/21 09:41:32;;;;;;;22.58;17.35;;;;;;;;;;10096553;28;20522;-63
2024/01/21 09:46:32;;;;;;;23.15;17.33;;;;;;;;;;10098155;28;20074;-61
2024/01/21 09:51:31;;;;;;;15.65;13.93;;;;;;;;;;10098566;28;20505;-60
2024/01/21 09:56:29;;;;;;;14.77;13.27;;;;;;;;;;10110745;28;20078;-60
2024/01/21 10:01:28;;;;;;;9.70;8.68;;;;;;;;;;10102222;28;20066;-61
2024/01/21 10:06:28;;;;;;;11.50;10.40;;;;;;;;;;10099922;28;20079;-62
2024/01/21 10:11:27;;;;;;;18.83;14.95;;;;;;;;;;10102021;28;20070;-60
2024/01/21 10:16:25;;;;;;;132.85;60.00;;;;;;;;;;10098151;28;20079;-61
2024/01/21 10:21:23;;;;;;;15.05;12.80;;;;;;;;;;10093476;28;20063;-60
2024/01/21 10:26:23;;;;;;;13.55;12.15;;;;;;;;;;10099257;28;20082;-61
2024/01/21 10:31:21;;;;;;;13.65;12.35;;;;;;;;;;10094028;28;20539;-61
2024/01/21 10:36:20;;;;;;;18.27;11.68;;;;;;;;;;10089860;28;20082;-61
2024/01/21 10:41:24;;;;;;;17.83;14.35;;;;;;;;;;10095362;28;20604;-60
2024/01/21 10:46:25;;;;;;;12.05;10.30;;;;;;;;;;10094223;28;20082;-62
2024/01/21 10:51:23;;;;;;;47.88;36.42;;;;;;;;;;10097607;28;20074;-60
2024/01/21 10:56:23;;;;;;;15.43;13.32;;;;;;;;;;10098614;28;20081;-60
2024/01/21 11:01:22;;;;;;;10.63;9.60;;;;;;;;;;10094637;28;20097;-60
2024/01/21 11:06:22;;;;;;;21.13;16.63;;;;;;;;;;10093225;28;20074;-62
2024/01/21 11:11:23;;;;;;;26.10;19.00;;;;;;;;;;10098408;28;20081;-62
2024/01/21 11:16:37;;;;;;;16.50;14.75;;;;;;;;;;10094173;28;20078;-62
2024/01/21 11:21:40;;;;;;;10.80;8.85;;;;;;;;;;10095471;28;20070;-62
2024/01/21 11:26:41;;;;;;;41.88;25.00;;;;;;;;;;10099467;28;20075;-62
2024/01/21 11:31:40;;;;;;;19.10;16.23;;;;;;;;;;10099690;28;20077;-62
2024/01/21 11:36:42;;;;;;;17.63;14.73;;;;;;;;;;10097775;28;20079;-62
2024/01/21 11:41:42;;;;;;;19.42;14.32;;;;;;;;;;10098595;28;20089;-64
2024/01/21 11:46:41;;;;;;;16.00;14.32;;;;;;;;;;10094388;28;20570;-61
2024/01/21 11:51:41;;;;;;;28.20;22.35;;;;;;;;;;10092860;28;20089;-62
2024/01/21 11:56:39;;;;;;;17.63;15.80;;;;;;;;;;10097247;28;20077;-62
2024/01/21 12:01:41;;;;;;;18.63;15.43;;;;;;;;;;10100744;28;20078;-61
2024/01/21 12:06:42;;;;;;;19.02;16.08;;;;;;;;;;10099703;28;20067;-62
2024/01/21 12:11:41;;;;;;;35.05;23.98;;;;;;;;;;10097593;28;20076;-61
2024/01/21 12:16:39;;;;;;;15.07;12.45;;;;;;;;;;10096803;28;20079;-60
2024/01/21 12:21:37;;;;;;;17.98;15.10;;;;;;;;;;10109069;28;20085;-61
2024/01/21 12:26:37;;;;;;;15.65;13.48;;;;;;;;;;10099827;28;20489;-62
2024/01/21 12:31:36;;;;;;;10.35;9.27;;;;;;;;;;10099678;28;20440;-62
2024/01/21 12:36:34;;;;;;;36.13;21.25;;;;;;;;;;10093125;28;20086;-61
2024/01/21 12:41:33;;;;;;;17.23;13.85;;;;;;;;;;10098909;28;20097;-60
2024/01/21 12:46:33;;;;;;;19.25;14.45;;;;;;;;;;10098892;28;20067;-60
2024/01/21 12:51:32;;;;;;;52.92;31.35;;;;;;;;;;10092998;28;20070;-60
2024/01/21 12:56:30;;;;;;;18.50;16.00;;;;;;;;;;10099609;28;20062;-62
2024/01/21 13:01:31;;;;;;;14.57;12.35;;;;;;;;;;10096764;28;20070;-61
2024/01/21 13:06:31;;;;;;;14.10;12.07;;;;;;;;;;10098702;28;20078;-61
2024/01/21 13:11:30;;;;;;;34.20;25.35;;;;;;;;;;10100843;28;20073;-61
2024/01/21 13:16:28;;;;;;;15.43;13.10;;;;;;;;;;10100599;28;20101;-62
2024/01/21 13:21:27;;;;;;;22.65;17.08;;;;;;;;;;10100030;28;20090;-62
2024/01/21 13:26:26;;;;;;;31.75;18.88;;;;;;;;;;10101746;28;20088;-63
2024/01/21 13:31:25;;;;;;;94.25;50.05;;;;;;;;;;10099137;28;20077;-61
2024/01/21 13:36:23;;;;;;;20.98;15.32;;;;;;;;;;10099389;28;20078;-62
2024/01/21 13:41:21;;;;;;;34.97;22.90;;;;;;;;;;10100142;28;20075;-62
2024/01/21 13:46:21;;;;;;;31.73;27.52;;;;;;;;;;10101087;28;20074;-61
2024/01/21 13:51:19;;;;;;;14.82;13.23;;;;;;;;;;10099609;28;20067;-63
2024/01/21 13:56:18;;;;;;;16.30;11.88;;;;;;;;;;10100784;28;20073;-62
2024/01/21 14:01:17;;;;;;;23.13;19.73;;;;;;;;;;10099616;28;20073;-61
2024/01/21 14:06:19;;;;;;;16.35;13.45;;;;;;;;;;10096061;28;20074;-62
2024/01/21 14:11:17;;;;;;;39.13;27.30;;;;;;;;;;10099644;28;20078;-62
2024/01/21 14:16:17;;;;;;;25.42;20.17;;;;;;;;;;10096156;28;20078;-61
2024/01/21 14:21:16;;;;;;;62.90;42.80;;;;;;;;;;10097597;28;20082;-62
2024/01/21 14:26:16;;;;;;;76.35;40.88;;;;;;;;;;10097310;28;20066;-61
2024/01/21 14:31:14;;;;;;;44.95;27.10;;;;;;;;;;10096726;28;20086;-62
2024/01/21 14:36:13;;;;;;;54.15;32.25;;;;;;;;;;10098227;28;20085;-63
2024/01/21 14:41:11;;;;;;;40.47;32.75;;;;;;;;;;10097399;28;20081;-62
2024/01/21 14:46:10;;;;;;;32.63;24.25;;;;;;;;;;10095226;28;20089;-63
2024/01/21 14:51:09;;;;;;;58.08;38.10;;;;;;;;;;10094686;28;20070;-62
2024/01/21 14:56:07;;;;;;;27.08;15.90;;;;;;;;;;10107904;28;20078;-62
2024/01/21 15:01:05;;;;;;;30.52;18.50;;;;;;;;;;10091563;28;20089;-63
2024/01/21 15:06:05;;;;;;;19.73;15.38;;;;;;;;;;10090373;28;20086;-62
2024/01/21 15:11:04;;;;;;;26.92;22.58;;;;;;;;;;10098263;28;20089;-63
2024/01/21 15:16:02;;;;;;;57.92;42.45;;;;;;;;;;10093822;28;20118;-62
2024/01/21 15:21:01;;;;;;;33.47;28.42;;;;;;;;;;10097926;28;20074;-61
2024/01/21 15:26:02;;;;;;;54.33;38.05;;;;;;;;;;10094324;28;20074;-61
2024/01/21 15:31:00;;;;;;;34.17;26.38;;;;;;;;;;10094606;28;20078;-61
2024/01/21 15:35:59;;;;;;;23.83;21.25;;;;;;;;;;10095908;28;20495;-60
2024/01/21 15:40:57;;;;;;;52.47;37.65;;;;;;;;;;10093868;28;20074;-60
2024/01/21 15:45:57;;;;;;;22.50;17.23;;;;;;;;;;10090387;28;20074;-60
2024/01/21 15:50:55;;;;;;;14.55;12.93;;;;;;;;;;10095675;28;20083;-60
2024/01/21 15:55:53;;;;;;;45.97;41.40;;;;;;;;;;10093555;28;20086;-61
2024/01/21 16:00:52;;;;;;;73.60;65.55;;;;;;;;;;10096094;28;20066;-60
2024/01/21 16:05:52;;;;;;;46.50;37.88;;;;;;;;;;10088072;28;20074;-59
2024/01/21 16:10:50;;;;;;;30.23;27.13;;;;;;;;;;10097008;28;20066;-61
2024/01/21 16:15:48;;;;;;;42.40;33.25;;;;;;;;;;10093651;28;20650;-61
2024/01/21 16:20:53;;;;;;;27.98;23.02;;;;;;;;;;10094795;28;20535;-60
2024/01/21 16:25:52;;;;;;;20.42;18.27;;;;;;;;;;10092763;28;20493;-60
2024/01/21 16:30:50;;;;;;;34.67;26.90;;;;;;;;;;10093375;28;20082;-59
2024/01/21 16:35:48;;;;;;;39.67;28.02;;;;;;;;;;10089346;28;20086;-60
2024/01/21 16:40:50;;;;;;;26.27;22.20;;;;;;;;;;10092434;28;20078;-61
2024/01/21 16:45:48;;;;;;;19.27;17.20;;;;;;;;;;10100519;28;20524;-61
2024/01/21 16:50:47;;;;;;;30.25;24.92;;;;;;;;;;10099970;28;20543;-61
2024/01/21 16:55:45;;;;;;;22.73;18.92;;;;;;;;;;10100287;28;20488;-61
2024/01/21 17:00:46;;;;;;;18.55;13.80;;;;;;;;;;10100197;28;20599;-61
2024/01/21 17:05:44;;;;;;;35.13;31.55;;;;;;;;;;10103549;28;20517;-60
2024/01/21 17:10:44;;;;;;;33.83;25.75;;;;;;;;;;10101730;28;20078;-60
2024/01/21 17:15:42;;;;;;;42.83;35.38;;;;;;;;;;10100266;28;20083;-61
2024/01/21 17:20:42;;;;;;;32.17;26.45;;;;;;;;;;10095971;28;20524;-62
2024/01/21 17:25:40;;;;;;;45.90;32.55;;;;;;;;;;10090464;28;20078;-61
2024/01/21 17:30:38;;;;;;;27.08;21.73;;;;;;;;;;10098698;28;20075;-60
2024/01/21 17:35:37;;;;;;;50.78;34.35;;;;;;;;;;10097509;28;20067;-59
2024/01/21 17:40:36;;;;;;;144.13;86.35;;;;;;;;;;10096243;28;20078;-60
2024/01/21 17:45:34;;;;;;;95.57;54.53;;;;;;;;;;10092748;28;20074;-60
2024/01/21 17:50:33;;;;;;;31.55;22.08;;;;;;;;;;10095355;28;20062;-60
2024/01/21 17:55:31;;;;;;;25.42;19.10;;;;;;;;;;10096341;28;20077;-60
2024/01/21 18:00:31;;;;;;;53.67;31.38;;;;;;;;;;10096471;28;20079;-61
2024/01/21 18:05:29;;;;;;;34.10;22.50;;;;;;;;;;10096283;28;20078;-60
2024/01/21 18:10:28;;;;;;;23.83;18.67;;;;;;;;;;10096364;28;20070;-60
2024/01/21 18:19:47;;;;;;;13.57;11.68;;;;;;;;;;10325466;27;20828;-60
2024/01/21 18:24:50;;;;;;;11.85;10.38;;;;;;;;;;10289086;28;20098;-60
2024/01/21 18:29:48;;;;;;;17.60;13.73;;;;;;;;;;10290760;28;20481;-60
2024/01/21 18:34:48;;;;;;;13.48;11.95;;;;;;;;;;10290857;28;20080;-60
2024/01/21 18:39:46;;;;;;;21.17;15.25;;;;;;;;;;10288966;28;20068;-61
2024/01/21 18:44:44;;;;;;;23.15;17.38;;;;;;;;;;10286565;28;20154;-60
2024/01/21 18:49:43;;;;;;;25.92;19.30;;;;;;;;;;10286022;28;20037;-62
2024/01/21 18:54:43;;;;;;;27.58;21.33;;;;;;;;;;10285382;28;20075;-60
2024/01/21 18:59:44;;;;;;;27.02;20.45;;;;;;;;;;10289978;28;20506;-61
2024/01/21 19:04:42;;;;;;;24.20;19.33;;;;;;;;;;10290203;28;20060;-60
2024/01/21 19:09:48;;;;;;;45.92;30.38;;;;;;;;;;10285233;28;20079;-60
2024/01/21 19:14:47;;;;;;;27.05;20.83;;;;;;;;;;10270631;28;20120;-60
2024/01/21 19:19:45;;;;;;;36.92;27.27;;;;;;;;;;10277551;28;20088;-60
2024/01/21 19:24:44;;;;;;;31.02;23.00;;;;;;;;;;10287932;28;20088;-59
2024/01/21 19:29:46;;;;;;;28.67;23.17;;;;;;;;;;10269302;28;20593;-60
2024/01/21 19:34:44;;;;;;;33.47;24.77;;;;;;;;;;10254705;28;20112;-60
2024/01/21 19:39:43;;;;;;;36.33;26.65;;;;;;;;;;10259915;28;20099;-60
2024/01/21 19:44:42;;;;;;;53.60;32.63;;;;;;;;;;10259548;28;20337;-61
2024/01/21 19:49:43;;;;;;;31.83;23.05;;;;;;;;;;10259407;28;20065;-61
2024/01/21 19:54:41;;;;;;;26.27;21.40;;;;;;;;;;10259986;28;20079;-61
2024/01/21 19:59:39;;;;;;;49.47;32.65;;;;;;;;;;10263033;28;20068;-60
2024/01/21 20:04:38;;;;;;;33.35;25.85;;;;;;;;;;10253630;28;20073;-61
2024/01/21 20:09:37;;;;;;;27.83;23.13;;;;;;;;;;10255732;28;20076;-60
2024/01/21 20:14:36;;;;;;;42.22;34.70;;;;;;;;;;10251395;28;20083;-60
2024/01/21 20:19:34;;;;;;;64.88;39.28;;;;;;;;;;10252833;28;20103;-60
2024/01/21 20:24:33;;;;;;;69.95;40.13;;;;;;;;;;10251540;28;20073;-60
2024/01/21 20:29:32;;;;;;;33.15;25.25;;;;;;;;;;10251458;28;20091;-60
2024/01/21 20:34:31;;;;;;;35.15;25.25;;;;;;;;;;10252683;28;20084;-60
2024/01/21 20:39:29;;;;;;;85.75;53.90;;;;;;;;;;10256578;28;20068;-60
2024/01/21 20:44:28;;;;;;;37.60;27.25;;;;;;;;;;10254392;28;20549;-60
2024/01/21 20:49:28;;;;;;;79.85;47.97;;;;;;;;;;10257320;28;20076;-58
2024/01/21 20:54:30;;;;;;;51.40;36.40;;;;;;;;;;10260003;28;20083;-61
2024/01/21 20:59:28;;;;;;;27.45;21.70;;;;;;;;;;10255723;28;20073;-60
2024/01/21 21:04:28;;;;;;;33.75;25.30;;;;;;;;;;10252557;28;20068;-59
2024/01/21 21:09:26;;;;;;;42.60;33.60;;;;;;;;;;10254170;28;20079;-58
2024/01/21 21:14:25;;;;;;;33.03;25.75;;;;;;;;;;10252572;28;20076;-59
2024/01/21 21:19:23;;;;;;;40.70;29.52;;;;;;;;;;10248441;28;20509;-59
2024/01/21 21:24:23;;;;;;;35.92;28.00;;;;;;;;;;10253406;28;20079;-58
2024/01/21 21:29:21;;;;;;;39.63;28.23;;;;;;;;;;10253068;28;20087;-58
2024/01/21 21:34:19;;;;;;;35.70;25.33;;;;;;;;;;10255561;28;20509;-58
2024/01/21 21:39:17;;;;;;;49.35;32.05;;;;;;;;;;10253305;28;20096;-58
2024/01/21 21:44:17;;;;;;;42.10;28.15;;;;;;;;;;10252668;28;20088;-58
2024/01/21 21:49:15;;;;;;;41.25;30.45;;;;;;;;;;10251886;28;20073;-58
2024/01/21 21:54:14;;;;;;;45.88;29.50;;;;;;;;;;10253370;28;20053;-59
2024/01/21 21:59:12;;;;;;;40.60;26.92;;;;;;;;;;10251887;28;20522;-56
2024/01/21 22:04:12;;;;;;;39.45;26.38;;;;;;;;;;10253818;28;20099;-57
2024/01/21 22:09:10;;;;;;;44.10;27.00;;;;;;;;;;10250992;28;20073;-59
2024/01/21 22:14:09;;;;;;;41.60;27.02;;;;;;;;;;10251739;28;20065;-60
2024/01/21 22:19:08;;;;;;;42.33;27.08;;;;;;;;;;10246190;28;20089;-59
2024/01/21 22:24:08;;;;;;;50.08;27.45;;;;;;;;;;10246669;28;20065;-59
2024/01/21 22:29:06;;;;;;;48.00;25.42;;;;;;;;;;10250968;28;20099;-60
2024/01/21 22:34:05;;;;;;;40.05;22.98;;;;;;;;;;10242666;28;20084;-59
2024/01/21 22:39:04;;;;;;;36.88;21.80;;;;;;;;;;10244458;28;20077;-59
2024/01/21 22:44:03;;;;;;;37.67;20.65;;;;;;;;;;10244577;28;20072;-59
2024/01/21 22:49:02;;;;;;;33.85;21.50;;;;;;;;;;10249080;28;20097;-59
2024/01/21 22:54:01;;;;;;;42.75;21.83;;;;;;;;;;10246554;28;20076;-60
2024/01/21 22:58:59;;;;;;;64.63;22.90;;;;;;;;;;10244934;28;20073;-60
2024/01/21 23:03:59;;;;;;;39.30;24.67;;;;;;;;;;10251301;28;20069;-60
2024/01/21 23:08:57;;;;;;;49.45;22.45;;;;;;;;;;10258338;28;20077;-60
2024/01/21 23:13:55;;;;;;;91.63;27.35;;;;;;;;;;10259435;28;20081;-60
2024/01/21 23:18:53;;;;;;;79.78;27.42;;;;;;;;;;10252774;28;20517;-60
2024/01/21 23:23:53;;;;;;;113.45;24.48;;;;;;;;;;10258828;28;20654;-60
2024/01/21 23:28:51;;;;;;;73.82;27.98;;;;;;;;;;10252784;28;20073;-60
2024/01/21 23:33:50;;;;;;;102.68;29.13;;;;;;;;;;10257822;28;20423;-60
2024/01/21 23:38:48;;;;;;;76.07;24.90;;;;;;;;;;10258448;28;20081;-60
2024/01/21 23:43:48;;;;;;;32.15;21.05;;;;;;;;;;10257139;28;20081;-60
2024/01/21 23:48:46;;;;;;;40.63;22.20;;;;;;;;;;10255773;28;20040;-61
2024/01/21 23:53:44;;;;;;;47.80;19.42;;;;;;;;;;10257035;28;20065;-60
2024/01/21 23:58:43;;;;;;;54.55;21.80;;;;;;;;;;10255662;28;20076;-60
